Compton Abbas Aerodrome


Codes: EGHA/
Name: Compton Abbas Aerodrome
City: Shaftesbury
Country: United Kingdom
Elevation: 811 ft.
Website:
Wikipedia:

Photos at Compton Abbas Aerodrome


   Photos courtesy of SpottingLog. You can add your own sightings and photos by signing up for a free trial today.



G-ARKP, 16-Sep-2023
© Nick Cruxton

G-TERO, 16-Sep-2023
© Nick Cruxton

G-AIBX, 16-Sep-2023
© Nick Cruxton

G-MOMA, 16-Sep-2023
© Nick Cruxton

N216GC, 16-Sep-2023
© Nick Cruxton

G-BADM, 16-Sep-2023
© Nick Cruxton

G-DENS, 16-Sep-2023
© Nick Cruxton

G-AZRA, 16-Sep-2023
© Nick Cruxton

WD390, 16-Sep-2023
© Nick Cruxton

G-BWNK, 16-Sep-2023
© Nick Cruxton

G-DOLI, 16-Sep-2023
© Nick Cruxton

N5427, 16-Sep-2023
© Nick Cruxton


Weather at Compton Abbas Aerodrome


Time (UTC)DescriptionTempratureWindCloud coverageVisibilityPressureHumidity
19-Apr-2024 03:00Broken Clouds8°C13 mph, W73%10000m1019hPa93%
19-Apr-2024 06:00Broken Clouds8°C11 mph, W76%10000m1019hPa94%
19-Apr-2024 09:00Broken Clouds9°C16 mph, NW53%10000m1019hPa87%
19-Apr-2024 12:00Light Rain12°C18 mph, NW65%10000m1019hPa77%
19-Apr-2024 15:00Light Rain12°C18 mph, NW63%10000m1020hPa77%
19-Apr-2024 18:00Light Rain9°C13 mph, N53%10000m1021hPa75%
19-Apr-2024 21:00Clear Sky4°C7 mph, NE5%10000m1025hPa93%
20-Apr-2024 00:00Scattered Clouds6°C7 mph, NE36%10000m1027hPa77%
20-Apr-2024 03:00Scattered Clouds1°C4 mph, NE29%10000m1028hPa88%
20-Apr-2024 06:00Scattered Clouds2°C4 mph, N49%10000m1030hPa82%
20-Apr-2024 09:00Scattered Clouds7°C9 mph, NE28%10000m1031hPa64%
20-Apr-2024 12:00Scattered Clouds10°C11 mph, N28%10000m1030hPa59%
20-Apr-2024 15:00Scattered Clouds10°C9 mph, N39%10000m1030hPa59%
20-Apr-2024 18:00Broken Clouds9°C4 mph, N54%10000m1030hPa77%
20-Apr-2024 21:00Broken Clouds4°C4 mph, N77%10000m1031hPa89%
21-Apr-2024 00:00Broken Clouds3°C4 mph, NE53%10000m1031hPa92%
21-Apr-2024 03:00Few Clouds1°C4 mph, NE17%10000m1032hPa89%
21-Apr-2024 06:00Few Clouds1°C4 mph, N19%10000m1032hPa87%
21-Apr-2024 09:00Overcast Clouds6°C11 mph, NE100%10000m1032hPa70%
21-Apr-2024 12:00Overcast Clouds9°C13 mph, NE89%10000m1032hPa67%
21-Apr-2024 15:00Overcast Clouds9°C11 mph, N100%10000m1031hPa76%
21-Apr-2024 18:00Overcast Clouds8°C9 mph, NE100%10000m1031hPa81%
21-Apr-2024 21:00Broken Clouds6°C9 mph, N82%10000m1032hPa83%
22-Apr-2024 00:00Broken Clouds1°C7 mph, NE66%10000m1033hPa92%
22-Apr-2024 03:00Few Clouds-1°C7 mph, N14%10000m1033hPa91%
22-Apr-2024 06:00Scattered Clouds0°C4 mph, N42%10000m1032hPa85%
22-Apr-2024 09:00Overcast Clouds6°C7 mph, N90%10000m1031hPa68%
22-Apr-2024 12:00Overcast Clouds8°C7 mph, N94%10000m1030hPa59%
22-Apr-2024 15:00Light Rain4°C4 mph, NW100%10000m1029hPa93%
22-Apr-2024 18:00Light Rain4°C4 mph, SW100%10000m1026hPa98%
22-Apr-2024 21:00Light Rain5°C2 mph, NW100%10000m1025hPa98%
23-Apr-2024 00:00Light Rain6°C7 mph, N100%10000m1024hPa98%
23-Apr-2024 03:00Overcast Clouds5°C9 mph, N100%10000m1023hPa97%
23-Apr-2024 06:00Overcast Clouds6°C9 mph, N100%10000m1022hPa95%
23-Apr-2024 09:00Broken Clouds7°C16 mph, N69%10000m1022hPa79%
23-Apr-2024 12:00Broken Clouds8°C13 mph, NE63%10000m1022hPa76%
23-Apr-2024 15:00Overcast Clouds9°C13 mph, N86%10000m1021hPa70%
23-Apr-2024 18:00Light Rain8°C9 mph, NE88%10000m1021hPa81%
23-Apr-2024 21:00Light Rain3°C2 mph, E80%10000m1022hPa95%
24-Apr-2024 00:00Broken Clouds2°C2 mph, N71%10000m1022hPa93%